createdAt,value
2017-07-22T00:00:21.806Z,21.58
2017-07-22T00:00:47.947Z,21.55
2017-07-22T00:01:14.098Z,21.55
2017-07-22T00:01:40.232Z,21.51
2017-07-22T00:02:06.374Z,21.55
2017-07-22T00:02:32.494Z,21.57
2017-07-22T00:02:58.685Z,21.57
2017-07-22T00:03:24.779Z,21.58
2017-07-22T00:03:50.916Z,21.55
2017-07-22T00:04:17.084Z,21.54
2017-07-22T00:04:43.236Z,21.62
2017-07-22T00:05:09.353Z,21.55
2017-07-22T00:05:35.484Z,21.54
2017-07-22T00:06:01.633Z,21.62
2017-07-22T00:06:27.818Z,21.58
2017-07-22T00:06:53.965Z,21.61
2017-07-22T00:07:20.080Z,21.6
2017-07-22T00:07:46.245Z,21.54
2017-07-22T00:08:12.393Z,21.57
2017-07-22T00:08:38.483Z,21.58
2017-07-22T00:09:04.640Z,21.51
2017-07-22T00:09:30.795Z,21.57
2017-07-22T00:09:56.933Z,21.52
2017-07-22T00:10:23.087Z,21.57
2017-07-22T00:10:49.220Z,21.5
2017-07-22T00:11:15.363Z,21.54
2017-07-22T00:11:41.513Z,21.58
2017-07-22T00:12:07.626Z,21.54
2017-07-22T00:12:33.757Z,21.58
2017-07-22T00:12:59.886Z,21.54
2017-07-22T00:13:25.999Z,21.51
2017-07-22T00:13:52.156Z,21.51
2017-07-22T00:14:18.264Z,21.55
2017-07-22T00:14:44.404Z,21.55
2017-07-22T00:15:10.553Z,21.54
2017-07-22T00:15:36.687Z,21.55
2017-07-22T00:16:02.802Z,21.54
2017-07-22T00:16:28.898Z,21.66
2017-07-22T00:16:54.996Z,21.55
2017-07-22T00:17:21.124Z,21.61
2017-07-22T00:17:47.287Z,21.67
2017-07-22T00:18:13.399Z,21.62
2017-07-22T00:18:39.524Z,21.55
2017-07-22T00:19:05.685Z,21.58
2017-07-22T00:19:31.830Z,21.57
2017-07-22T00:19:57.928Z,21.57
2017-07-22T00:20:24.095Z,21.46
2017-07-22T00:20:50.266Z,21.52
2017-07-22T00:21:16.406Z,21.5
2017-07-22T00:21:42.545Z,21.43
2017-07-22T00:22:08.644Z,21.42
2017-07-22T00:22:34.747Z,21.43
2017-07-22T00:23:00.867Z,21.48
2017-07-22T00:23:26.989Z,21.52
2017-07-22T00:23:53.095Z,21.52
2017-07-22T00:24:19.247Z,21.55
2017-07-22T00:24:45.410Z,21.58
2017-07-22T00:25:11.521Z,21.58
2017-07-22T00:25:37.669Z,21.55
2017-07-22T00:26:03.786Z,21.58
2017-07-22T00:26:29.918Z,21.61
2017-07-22T00:26:56.075Z,21.57
2017-07-22T00:27:22.266Z,21.52
2017-07-22T00:27:48.418Z,21.51
2017-07-22T00:28:14.533Z,21.52
2017-07-22T00:28:40.643Z,21.48
2017-07-22T00:29:06.794Z,21.42
2017-07-22T00:29:32.911Z,21.48
2017-07-22T00:29:59.040Z,21.55
2017-07-22T00:30:25.225Z,21.55
2017-07-22T00:30:51.342Z,21.62
2017-07-22T00:31:17.498Z,21.61
2017-07-22T00:31:43.658Z,21.55
2017-07-22T00:32:09.800Z,21.54
2017-07-22T00:32:35.989Z,21.52
2017-07-22T00:33:02.188Z,21.5
2017-07-22T00:33:28.304Z,21.5
2017-07-22T00:33:54.432Z,21.45
2017-07-22T00:34:20.592Z,21.45
2017-07-22T00:34:46.743Z,21.36
2017-07-22T00:35:12.875Z,21.33
2017-07-22T00:35:39.038Z,21.35
2017-07-22T00:36:05.162Z,21.39
2017-07-22T00:36:31.314Z,21.4
2017-07-22T00:36:57.406Z,21.4
2017-07-22T00:37:23.528Z,21.35
2017-07-22T00:37:49.634Z,21.45
2017-07-22T00:38:15.727Z,21.45
2017-07-22T00:38:41.816Z,21.46
2017-07-22T00:39:07.974Z,21.48
2017-07-22T00:39:34.100Z,21.54
2017-07-22T00:40:00.262Z,21.52
2017-07-22T00:40:26.432Z,21.52
2017-07-22T00:40:52.678Z,21.58
2017-07-22T00:41:18.812Z,21.57
2017-07-22T00:41:44.956Z,21.58
2017-07-22T00:42:11.093Z,21.66
2017-07-22T00:42:37.201Z,21.73
2017-07-22T00:43:03.430Z,21.7
2017-07-22T00:43:29.544Z,21.7
2017-07-22T00:43:55.704Z,21.75
2017-07-22T00:44:21.888Z,21.69
2017-07-22T00:44:48.029Z,21.72
2017-07-22T00:45:14.183Z,21.62
2017-07-22T00:45:40.382Z,21.54
2017-07-22T00:46:06.485Z,21.58
2017-07-22T00:46:32.636Z,21.54
2017-07-22T00:46:58.856Z,21.52
2017-07-22T00:47:25.000Z,21.61
2017-07-22T00:47:51.121Z,21.55
2017-07-22T00:48:17.259Z,21.52
2017-07-22T00:48:43.403Z,21.52
2017-07-22T00:49:09.519Z,21.54
2017-07-22T00:49:35.657Z,21.51
2017-07-22T00:50:01.834Z,21.48
2017-07-22T00:50:28.014Z,21.46
2017-07-22T00:50:54.181Z,21.52
2017-07-22T00:51:20.350Z,21.48
2017-07-22T00:51:46.569Z,21.55
2017-07-22T00:52:12.717Z,21.52
2017-07-22T00:52:38.852Z,21.6
2017-07-22T00:53:05.018Z,21.55
2017-07-22T00:53:31.172Z,21.66
2017-07-22T00:53:57.391Z,21.6
2017-07-22T00:54:23.576Z,21.6
2017-07-22T00:54:49.731Z,21.52
2017-07-22T00:55:15.846Z,21.62
2017-07-22T00:55:42.027Z,21.57
2017-07-22T00:56:08.151Z,21.61
2017-07-22T00:56:34.279Z,21.55
2017-07-22T00:57:00.378Z,21.54
2017-07-22T00:57:26.493Z,21.52
2017-07-22T00:57:52.661Z,21.54
2017-07-22T00:58:18.840Z,21.43
2017-07-22T00:58:44.987Z,21.43
2017-07-22T00:59:11.138Z,21.45
2017-07-22T00:59:37.270Z,21.48
2017-07-22T01:00:03.389Z,21.45
2017-07-22T01:00:29.572Z,21.37
2017-07-22T01:00:55.685Z,21.5
2017-07-22T01:01:21.775Z,21.45
2017-07-22T01:01:47.933Z,21.4
2017-07-22T01:02:14.096Z,21.4
2017-07-22T01:02:40.245Z,21.42
2017-07-22T01:03:06.447Z,21.36
2017-07-22T01:03:32.535Z,21.39
2017-07-22T01:03:58.672Z,21.35
2017-07-22T01:04:24.811Z,21.33
2017-07-22T01:04:50.936Z,21.36
2017-07-22T01:05:17.093Z,21.32
2017-07-22T01:05:43.257Z,21.36
2017-07-22T01:06:09.410Z,21.4
2017-07-22T01:06:35.519Z,21.3
2017-07-22T01:07:01.684Z,21.35
2017-07-22T01:07:27.870Z,21.39
2017-07-22T01:07:54.056Z,21.36
2017-07-22T01:08:20.226Z,21.43
2017-07-22T01:08:46.373Z,21.42
2017-07-22T01:09:12.540Z,21.43
2017-07-22T01:09:38.686Z,21.39
2017-07-22T01:10:04.777Z,21.37
2017-07-22T01:10:30.914Z,21.42
2017-07-22T01:10:57.039Z,21.39
2017-07-22T01:11:23.157Z,21.35
2017-07-22T01:11:49.266Z,21.5
2017-07-22T01:12:15.367Z,21.43
2017-07-22T01:12:41.515Z,21.48
2017-07-22T01:13:07.611Z,21.45
2017-07-22T01:13:33.729Z,21.42
2017-07-22T01:13:59.892Z,21.36
2017-07-22T01:14:26.069Z,21.36
2017-07-22T01:14:52.262Z,21.36
2017-07-22T01:15:18.416Z,21.33
2017-07-22T01:15:44.569Z,21.39
2017-07-22T01:16:10.707Z,21.32
2017-07-22T01:16:36.814Z,21.29
2017-07-22T01:17:02.999Z,21.36
2017-07-22T01:17:29.113Z,21.39
2017-07-22T01:17:55.291Z,21.36
2017-07-22T01:18:21.489Z,21.33
2017-07-22T01:18:47.596Z,21.39
2017-07-22T01:19:13.755Z,21.37
2017-07-22T01:19:39.892Z,21.39
2017-07-22T01:20:05.996Z,21.4
2017-07-22T01:20:32.157Z,21.37
2017-07-22T01:20:58.243Z,21.33
2017-07-22T01:21:24.368Z,21.27
2017-07-22T01:21:50.502Z,21.27
2017-07-22T01:22:46.438Z,21.32
2017-07-22T01:23:12.578Z,21.33
2017-07-22T01:23:38.713Z,21.3
2017-07-22T01:24:04.811Z,21.2
2017-07-22T01:24:30.964Z,21.24
2017-07-22T01:24:57.110Z,21.21
2017-07-22T01:25:23.275Z,21.2
2017-07-22T01:25:49.413Z,21.32
2017-07-22T01:26:15.620Z,21.29
2017-07-22T01:26:41.735Z,21.35
2017-07-22T01:27:07.868Z,21.29
2017-07-22T01:27:34.024Z,21.32
2017-07-22T01:28:00.163Z,21.32
2017-07-22T01:28:26.316Z,21.33
2017-07-22T01:28:52.450Z,21.37
2017-07-22T01:29:18.537Z,21.39
2017-07-22T01:29:44.662Z,21.35
2017-07-22T01:30:10.796Z,21.33
2017-07-22T01:30:36.938Z,21.33
2017-07-22T01:31:03.058Z,21.36
2017-07-22T01:31:29.165Z,21.39
2017-07-22T01:31:55.309Z,21.37
2017-07-22T01:32:21.400Z,21.43
2017-07-22T01:32:47.510Z,21.35
2017-07-22T01:33:13.633Z,21.42
2017-07-22T01:33:39.752Z,21.52
2017-07-22T01:34:05.911Z,21.43
2017-07-22T01:34:32.039Z,21.45
2017-07-22T01:34:58.154Z,21.42
2017-07-22T01:35:24.308Z,21.45
2017-07-22T01:35:50.424Z,21.48
2017-07-22T01:36:16.591Z,21.5
2017-07-22T01:36:42.690Z,21.5
2017-07-22T01:37:08.829Z,21.48
2017-07-22T01:37:34.964Z,21.37
2017-07-22T01:38:01.066Z,21.48
2017-07-22T01:38:27.181Z,21.43
2017-07-22T01:38:53.313Z,21.46
2017-07-22T01:39:19.448Z,21.51
2017-07-22T01:39:45.558Z,21.46
2017-07-22T01:40:11.682Z,21.57
2017-07-22T01:40:37.868Z,21.55
2017-07-22T01:41:03.983Z,21.52
2017-07-22T01:41:30.114Z,21.42
2017-07-22T01:41:56.308Z,21.45
2017-07-22T01:42:22.459Z,21.5
2017-07-22T01:42:48.565Z,21.45
2017-07-22T01:43:14.704Z,21.43
2017-07-22T01:43:40.831Z,21.5
2017-07-22T01:44:06.992Z,21.43
2017-07-22T01:44:33.111Z,21.5
2017-07-22T01:44:59.208Z,21.51
2017-07-22T01:45:25.397Z,21.42
2017-07-22T01:45:51.491Z,21.5
2017-07-22T01:46:17.583Z,21.48
2017-07-22T01:46:43.741Z,21.45
2017-07-22T01:47:09.890Z,21.46
2017-07-22T01:47:36.024Z,21.51
2017-07-22T01:48:02.141Z,21.43
2017-07-22T01:48:28.289Z,21.46
2017-07-22T01:48:54.451Z,21.52
2017-07-22T01:49:20.546Z,21.48
2017-07-22T01:49:46.663Z,21.6
2017-07-22T01:50:12.802Z,21.5
2017-07-22T01:50:39.011Z,21.51
2017-07-22T01:51:05.156Z,21.43
2017-07-22T01:51:31.309Z,21.43
2017-07-22T01:51:57.462Z,21.46
2017-07-22T01:52:23.587Z,21.48
2017-07-22T01:52:49.730Z,21.43
2017-07-22T01:53:15.821Z,21.4
2017-07-22T01:53:41.990Z,21.4
2017-07-22T01:54:08.114Z,21.43
2017-07-22T01:54:34.229Z,21.4
2017-07-22T01:55:00.415Z,21.39
2017-07-22T01:55:26.518Z,21.45
2017-07-22T01:55:52.653Z,21.48
2017-07-22T01:56:18.813Z,21.43
2017-07-22T01:56:45.005Z,21.5
2017-07-22T01:57:11.142Z,21.46
2017-07-22T01:57:37.290Z,21.43
2017-07-22T01:58:03.463Z,21.4
2017-07-22T01:58:29.595Z,21.45
2017-07-22T01:58:55.751Z,21.45
2017-07-22T01:59:21.937Z,21.45
2017-07-22T01:59:48.094Z,21.48
2017-07-22T02:00:14.230Z,21.42
2017-07-22T02:00:40.320Z,21.5
2017-07-22T02:01:06.422Z,21.51
2017-07-22T02:01:32.609Z,21.45
2017-07-22T02:01:58.699Z,21.46
2017-07-22T02:02:24.821Z,21.46
2017-07-22T02:02:51.288Z,21.42
2017-07-22T02:03:17.433Z,21.43
2017-07-22T02:03:43.588Z,21.37
2017-07-22T02:04:09.724Z,21.36
2017-07-22T02:04:35.898Z,21.37
2017-07-22T02:05:02.028Z,21.4
2017-07-22T02:05:28.198Z,21.37
2017-07-22T02:05:54.369Z,21.36
2017-07-22T02:06:20.555Z,21.37
2017-07-22T02:06:46.671Z,21.46
2017-07-22T02:07:12.805Z,21.46
2017-07-22T02:07:38.967Z,21.4
2017-07-22T02:08:05.172Z,21.39
2017-07-22T02:08:31.339Z,21.42
2017-07-22T02:08:57.496Z,21.46
2017-07-22T02:09:23.663Z,21.45
2017-07-22T02:09:49.789Z,21.32
2017-07-22T02:10:15.933Z,21.37
2017-07-22T02:10:42.100Z,21.36
2017-07-22T02:11:08.227Z,21.36
2017-07-22T02:11:34.372Z,21.33
2017-07-22T02:12:00.505Z,21.35
2017-07-22T02:12:26.660Z,21.27
2017-07-22T02:12:52.805Z,21.32
2017-07-22T02:13:18.917Z,21.42
2017-07-22T02:13:45.069Z,21.36
2017-07-22T02:14:11.227Z,21.36
2017-07-22T02:14:37.392Z,21.37
2017-07-22T02:15:03.568Z,21.39
2017-07-22T02:15:29.720Z,21.42
2017-07-22T02:15:55.864Z,21.36
2017-07-22T02:16:22.008Z,21.45
2017-07-22T02:16:48.165Z,21.39
2017-07-22T02:17:14.341Z,21.45
2017-07-22T02:17:40.478Z,21.42
2017-07-22T02:18:06.637Z,21.37
2017-07-22T02:18:32.850Z,21.4
2017-07-22T02:18:58.990Z,21.37
2017-07-22T02:19:25.146Z,21.39
2017-07-22T02:19:51.265Z,21.39
2017-07-22T02:20:17.419Z,21.22
2017-07-22T02:20:43.559Z,21.32
2017-07-22T02:21:09.754Z,21.29
2017-07-22T02:21:35.972Z,21.32
2017-07-22T02:22:02.151Z,21.35
2017-07-22T02:22:28.346Z,21.25
2017-07-22T02:22:54.501Z,21.29
2017-07-22T02:23:20.680Z,21.35
2017-07-22T02:23:46.875Z,21.33
2017-07-22T02:24:13.026Z,21.35
2017-07-22T02:24:39.148Z,21.39
2017-07-22T02:25:05.258Z,21.45
2017-07-22T02:25:31.434Z,21.39
2017-07-22T02:25:57.609Z,21.39
2017-07-22T02:26:23.732Z,21.4
2017-07-22T02:26:49.887Z,21.36
2017-07-22T02:27:16.053Z,21.39
2017-07-22T02:27:42.207Z,21.3
2017-07-22T02:28:08.364Z,21.3
2017-07-22T02:28:34.501Z,21.32
2017-07-22T02:29:00.682Z,21.35
2017-07-22T02:29:26.927Z,21.33
2017-07-22T02:29:53.125Z,21.36
2017-07-22T02:30:19.336Z,21.37
2017-07-22T02:30:45.545Z,21.45
2017-07-22T02:31:11.683Z,21.43
2017-07-22T02:31:37.898Z,21.4
2017-07-22T02:32:04.118Z,21.43
2017-07-22T02:32:30.268Z,21.42
2017-07-22T02:32:56.486Z,21.43
2017-07-22T02:33:22.628Z,21.42
2017-07-22T02:33:48.829Z,21.46
2017-07-22T02:34:14.956Z,21.43
2017-07-22T02:34:41.154Z,21.48
2017-07-22T02:35:07.381Z,21.43
2017-07-22T02:35:33.540Z,21.45
2017-07-22T02:35:59.661Z,21.48
2017-07-22T02:36:25.854Z,21.48
2017-07-22T02:36:52.130Z,21.48
2017-07-22T02:37:18.331Z,21.6
2017-07-22T02:37:44.486Z,21.58
2017-07-22T02:38:10.625Z,21.58
2017-07-22T02:38:36.822Z,21.54
2017-07-22T02:39:03.035Z,21.5
2017-07-22T02:39:29.183Z,21.27
2017-07-22T02:39:55.318Z,21.21
2017-07-22T02:40:21.471Z,21.21
2017-07-22T02:40:47.619Z,21.12
2017-07-22T02:41:13.845Z,21
2017-07-22T02:41:40.044Z,21.06
2017-07-22T02:42:06.264Z,21.06
2017-07-22T02:42:32.464Z,21.02
2017-07-22T02:42:58.580Z,20.9
2017-07-22T02:43:24.693Z,20.96
2017-07-22T02:43:50.875Z,20.95
2017-07-22T02:44:17.059Z,20.92
2017-07-22T02:44:43.228Z,20.9
2017-07-22T02:45:09.443Z,20.95
2017-07-22T02:45:35.628Z,21.02
2017-07-22T02:46:01.768Z,20.95
2017-07-22T02:46:27.918Z,20.96
2017-07-22T02:46:54.078Z,21.09
2017-07-22T02:47:20.245Z,21.07
2017-07-22T02:47:46.419Z,21.12
2017-07-22T02:48:12.568Z,21.11
2017-07-22T02:48:38.755Z,21.12
2017-07-22T02:49:04.913Z,21.03
2017-07-22T02:49:31.107Z,21.15
2017-07-22T02:49:57.281Z,21.11
2017-07-22T02:50:23.471Z,21.09
2017-07-22T02:50:49.607Z,21.17
2017-07-22T02:51:15.779Z,21.09
2017-07-22T02:51:41.965Z,21.11
2017-07-22T02:52:08.197Z,21.22
2017-07-22T02:52:34.364Z,21.06
2017-07-22T02:53:00.559Z,21.15
2017-07-22T02:53:26.734Z,21.09
2017-07-22T02:53:52.940Z,21.06
2017-07-22T02:54:19.110Z,20.99
2017-07-22T02:54:45.340Z,21.07
2017-07-22T02:55:11.597Z,20.99
2017-07-22T02:55:37.797Z,21.02
2017-07-22T02:56:03.962Z,20.92
2017-07-22T02:56:30.148Z,20.87
2017-07-22T02:56:56.339Z,20.74
2017-07-22T02:57:22.552Z,20.78
2017-07-22T02:57:48.677Z,20.65
2017-07-22T02:58:14.856Z,20.48
2017-07-22T02:58:41.058Z,20.24
2017-07-22T02:59:07.242Z,19.89
2017-07-22T02:59:33.453Z,19.7
2017-07-22T02:59:59.559Z,19.56
2017-07-22T03:00:25.740Z,19.45
2017-07-22T03:00:51.896Z,19.49
2017-07-22T03:01:18.067Z,19.47
2017-07-22T03:01:44.232Z,19.55
2017-07-22T03:02:10.423Z,19.4
2017-07-22T03:02:36.532Z,19.31
2017-07-22T03:03:02.673Z,19.16
2017-07-22T03:03:28.862Z,19.09
2017-07-22T03:03:55.014Z,19.08
2017-07-22T03:04:21.152Z,18.89
2017-07-22T03:04:47.338Z,18.83
2017-07-22T03:05:13.449Z,18.8
2017-07-22T03:05:39.579Z,18.78
2017-07-22T03:06:05.781Z,18.84
2017-07-22T03:06:31.973Z,18.68
2017-07-22T03:06:58.105Z,18.68
2017-07-22T03:07:24.307Z,18.74
2017-07-22T03:07:50.502Z,18.71
2017-07-22T03:08:16.685Z,18.71
2017-07-22T03:08:42.840Z,18.74
2017-07-22T03:09:09.003Z,18.68
2017-07-22T03:09:35.151Z,18.73
2017-07-22T03:10:01.309Z,18.75
2017-07-22T03:10:27.448Z,18.71
2017-07-22T03:10:53.596Z,18.8
2017-07-22T03:11:19.788Z,18.73
2017-07-22T03:11:46.006Z,18.55
2017-07-22T03:12:12.219Z,18.52
2017-07-22T03:12:38.436Z,18.62
2017-07-22T03:13:04.644Z,18.7
2017-07-22T03:13:30.865Z,18.62
2017-07-22T03:13:57.027Z,18.63
2017-07-22T03:14:23.175Z,18.6
2017-07-22T03:14:49.327Z,18.65
2017-07-22T03:15:15.526Z,18.65
2017-07-22T03:15:41.662Z,18.68
2017-07-22T03:16:07.808Z,18.6
2017-07-22T03:16:33.963Z,18.65
2017-07-22T03:17:00.179Z,18.68
2017-07-22T03:17:26.285Z,18.68
2017-07-22T03:17:52.493Z,18.77
2017-07-22T03:18:18.651Z,18.77
2017-07-22T03:18:44.846Z,18.81
2017-07-22T03:19:10.990Z,18.8
2017-07-22T03:19:37.173Z,18.7
2017-07-22T03:20:03.322Z,18.73
2017-07-22T03:20:29.485Z,18.66
2017-07-22T03:20:55.679Z,18.75
2017-07-22T03:21:21.825Z,18.7
2017-07-22T03:21:47.946Z,18.73
2017-07-22T03:22:14.121Z,18.78
2017-07-22T03:22:40.292Z,18.74
2017-07-22T03:23:06.480Z,18.75
2017-07-22T03:23:32.624Z,18.78
2017-07-22T03:23:58.765Z,18.74
2017-07-22T03:24:24.987Z,18.73
2017-07-22T03:24:51.229Z,18.74
2017-07-22T03:25:17.424Z,18.74
2017-07-22T03:25:43.548Z,18.8
2017-07-22T03:26:09.727Z,18.71
2017-07-22T03:26:35.926Z,18.71
2017-07-22T03:27:02.114Z,18.77
2017-07-22T03:27:28.247Z,18.71
2017-07-22T03:27:54.377Z,18.66
2017-07-22T03:28:20.551Z,18.75
2017-07-22T03:28:46.690Z,18.68
2017-07-22T03:29:12.869Z,18.59
2017-07-22T03:29:39.048Z,18.65
2017-07-22T03:30:05.207Z,18.65
2017-07-22T03:30:31.420Z,18.59
2017-07-22T03:30:57.605Z,18.59
2017-07-22T03:31:23.796Z,18.53
2017-07-22T03:31:49.977Z,18.63
2017-07-22T03:32:16.218Z,18.62
2017-07-22T03:32:42.422Z,18.62
2017-07-22T03:33:08.634Z,18.62
2017-07-22T03:33:34.742Z,18.68
2017-07-22T03:34:00.864Z,18.56
2017-07-22T03:34:27.062Z,18.63
2017-07-22T03:34:53.196Z,18.59
2017-07-22T03:35:19.374Z,18.53
2017-07-22T03:35:45.526Z,18.55
2017-07-22T03:36:11.695Z,18.56
2017-07-22T03:36:37.897Z,18.59
2017-07-22T03:37:04.058Z,18.68
2017-07-22T03:37:30.169Z,18.68
2017-07-22T03:37:56.363Z,18.7
2017-07-22T03:38:22.550Z,18.68
2017-07-22T03:38:48.737Z,18.7
2017-07-22T03:39:14.863Z,18.63
2017-07-22T03:39:41.000Z,18.75
2017-07-22T03:40:07.196Z,18.68
2017-07-22T03:40:33.353Z,18.7
2017-07-22T03:40:59.494Z,18.7
2017-07-22T03:41:25.687Z,18.62
2017-07-22T03:41:51.879Z,18.53
2017-07-22T03:42:18.051Z,18.58
2017-07-22T03:42:44.191Z,18.5
2017-07-22T03:43:10.371Z,18.65
2017-07-22T03:43:36.553Z,18.56
2017-07-22T03:44:02.716Z,18.66
2017-07-22T03:44:28.862Z,18.68
2017-07-22T03:44:55.050Z,18.5
2017-07-22T03:45:21.212Z,18.63
2017-07-22T03:45:47.361Z,18.68
2017-07-22T03:46:13.520Z,18.7
2017-07-22T03:46:39.686Z,18.65
2017-07-22T03:47:05.861Z,18.74
2017-07-22T03:47:31.989Z,18.78
2017-07-22T03:47:58.163Z,18.77
2017-07-22T03:48:24.327Z,18.86
2017-07-22T03:48:50.550Z,18.74
2017-07-22T03:49:16.727Z,18.58
2017-07-22T03:49:42.881Z,18.62
2017-07-22T03:50:09.085Z,18.77
2017-07-22T03:50:35.256Z,18.62
2017-07-22T03:51:01.411Z,18.73
2017-07-22T03:51:27.554Z,18.75
2017-07-22T03:51:53.692Z,18.6
2017-07-22T03:52:19.855Z,18.6
2017-07-22T03:52:45.996Z,18.66
2017-07-22T03:53:12.132Z,18.68
2017-07-22T03:53:38.257Z,18.73
2017-07-22T03:54:04.378Z,18.74
2017-07-22T03:54:30.511Z,18.77
2017-07-22T03:54:56.722Z,18.74
2017-07-22T03:55:22.953Z,18.73
2017-07-22T03:55:49.079Z,18.75
2017-07-22T03:56:15.266Z,18.71
2017-07-22T03:56:41.373Z,18.77
2017-07-22T03:57:07.525Z,18.75
2017-07-22T03:57:33.642Z,18.75
2017-07-22T03:57:59.784Z,18.8
2017-07-22T03:58:25.992Z,18.71
2017-07-22T03:58:52.152Z,18.73
2017-07-22T03:59:18.283Z,18.83
2017-07-22T03:59:44.433Z,18.89
2017-07-22T04:00:10.653Z,18.84
2017-07-22T04:00:36.760Z,18.81
2017-07-22T04:01:02.886Z,18.78
2017-07-22T04:01:29.106Z,18.95
2017-07-22T04:01:55.231Z,18.86
2017-07-22T04:02:21.355Z,19
2017-07-22T04:02:47.546Z,18.89
2017-07-22T04:03:13.723Z,18.93
2017-07-22T04:03:39.914Z,18.96
2017-07-22T04:04:06.050Z,18.84
2017-07-22T04:04:32.251Z,18.83
2017-07-22T04:04:58.403Z,18.8
2017-07-22T04:05:24.601Z,18.78
2017-07-22T04:05:50.708Z,18.78
2017-07-22T04:06:16.896Z,18.84
2017-07-22T04:06:43.107Z,18.83
2017-07-22T04:07:09.264Z,18.83
2017-07-22T04:07:35.464Z,18.83
2017-07-22T04:08:01.608Z,18.81
2017-07-22T04:08:27.793Z,18.71
2017-07-22T04:08:53.910Z,18.8
2017-07-22T04:09:20.044Z,18.83
2017-07-22T04:09:46.235Z,18.84
2017-07-22T04:10:12.438Z,18.84
2017-07-22T04:10:38.602Z,18.78
2017-07-22T04:11:04.788Z,18.81
2017-07-22T04:11:30.936Z,18.89
2017-07-22T04:11:57.075Z,18.88
2017-07-22T04:12:23.248Z,18.9
2017-07-22T04:12:49.386Z,18.84
2017-07-22T04:13:15.611Z,18.84
2017-07-22T04:13:41.756Z,18.84
2017-07-22T04:14:07.890Z,18.84
2017-07-22T04:14:34.017Z,19
2017-07-22T04:15:00.201Z,18.93
2017-07-22T04:15:26.335Z,18.9
2017-07-22T04:15:52.454Z,18.98
2017-07-22T04:16:18.611Z,19.02
2017-07-22T04:16:44.716Z,19.08
2017-07-22T04:17:10.866Z,19.02
2017-07-22T04:17:37.007Z,19.08
2017-07-22T04:18:03.198Z,19.09
2017-07-22T04:18:29.350Z,19.11
2017-07-22T04:18:55.519Z,19.11
2017-07-22T04:19:21.702Z,19.11
2017-07-22T04:19:47.828Z,19.18
2017-07-22T04:20:13.964Z,19.16
2017-07-22T04:20:40.145Z,19.21
2017-07-22T04:21:06.335Z,19.07
2017-07-22T04:21:32.471Z,19.15
2017-07-22T04:21:58.587Z,19.19
2017-07-22T04:22:24.812Z,19.12
2017-07-22T04:22:50.957Z,19.16
2017-07-22T04:23:17.083Z,19.24
2017-07-22T04:23:43.279Z,19.24
2017-07-22T04:24:09.455Z,19.3
2017-07-22T04:24:35.675Z,19.22
2017-07-22T04:25:01.814Z,19.16
2017-07-22T04:25:27.963Z,19.21
2017-07-22T04:25:54.117Z,19.15
2017-07-22T04:26:20.230Z,19.15
2017-07-22T04:26:46.361Z,19.29
2017-07-22T04:27:12.553Z,19.26
2017-07-22T04:27:38.667Z,19.26
2017-07-22T04:28:04.804Z,19.24
2017-07-22T04:28:30.960Z,19.14
2017-07-22T04:28:57.109Z,19.18
2017-07-22T04:29:23.278Z,19.11
2017-07-22T04:29:49.403Z,19.14
2017-07-22T04:30:15.561Z,19.26
2017-07-22T04:30:41.762Z,19.14
2017-07-22T04:31:07.931Z,19.19
2017-07-22T04:31:34.088Z,19.14
2017-07-22T04:32:00.251Z,19.22
2017-07-22T04:32:26.392Z,19.14
2017-07-22T04:32:52.605Z,19.18
2017-07-22T04:33:18.718Z,19.07
2017-07-22T04:33:44.825Z,19.04
2017-07-22T04:34:11.041Z,19.04
2017-07-22T04:34:37.187Z,19.07
2017-07-22T04:35:03.339Z,19.11
2017-07-22T04:35:29.453Z,19.09
2017-07-22T04:35:55.596Z,19.14
2017-07-22T04:36:21.751Z,19.22
2017-07-22T04:36:47.890Z,19.16
2017-07-22T04:37:14.056Z,19.21
2017-07-22T04:37:40.239Z,19.29
2017-07-22T04:38:06.363Z,19.31
2017-07-22T04:38:32.494Z,19.33
2017-07-22T04:38:58.679Z,19.36
2017-07-22T04:39:24.797Z,19.26
2017-07-22T04:39:50.917Z,19.37
2017-07-22T04:40:17.062Z,19.31
2017-07-22T04:40:43.253Z,19.31
2017-07-22T04:41:09.415Z,19.3
2017-07-22T04:41:35.588Z,19.37
2017-07-22T04:42:01.730Z,19.24
2017-07-22T04:42:27.938Z,19.29
2017-07-22T04:42:54.056Z,19.37
2017-07-22T04:43:20.171Z,19.3
2017-07-22T04:43:46.354Z,19.29
2017-07-22T04:44:12.540Z,19.29
2017-07-22T04:44:38.773Z,19.29
2017-07-22T04:45:04.964Z,19.34
2017-07-22T04:45:31.088Z,19.26
2017-07-22T04:45:57.263Z,19.27
2017-07-22T04:46:23.449Z,19.3
2017-07-22T04:46:49.558Z,19.29
2017-07-22T04:47:15.764Z,19.33
2017-07-22T04:47:41.888Z,19.37
2017-07-22T04:48:08.076Z,19.26
2017-07-22T04:48:34.286Z,19.26
2017-07-22T04:49:00.503Z,19.26
2017-07-22T04:49:26.669Z,19.3
2017-07-22T04:49:52.840Z,19.34
2017-07-22T04:50:19.024Z,19.33
2017-07-22T04:50:45.192Z,19.29
2017-07-22T04:51:11.333Z,19.31
2017-07-22T04:51:37.461Z,19.3
2017-07-22T04:52:03.673Z,19.34
2017-07-22T04:52:29.838Z,19.37
2017-07-22T04:52:56.021Z,19.37
2017-07-22T04:53:22.143Z,19.39
2017-07-22T04:53:48.305Z,19.44
2017-07-22T04:54:14.481Z,19.48
2017-07-22T04:54:40.638Z,19.55
2017-07-22T04:55:06.768Z,19.41
2017-07-22T04:55:32.921Z,19.49
2017-07-22T04:55:59.082Z,19.51
2017-07-22T04:56:25.248Z,19.48
2017-07-22T04:56:51.402Z,19.39
2017-07-22T04:57:17.515Z,19.39
2017-07-22T04:57:43.639Z,19.26
2017-07-22T04:58:09.792Z,19.31
2017-07-22T04:58:35.954Z,19.27
2017-07-22T04:59:02.153Z,19.18
2017-07-22T04:59:28.343Z,19.22
2017-07-22T04:59:54.485Z,19.18
2017-07-22T05:00:20.627Z,19.09
2017-07-22T05:00:46.781Z,19.11
2017-07-22T05:01:12.953Z,19.08
2017-07-22T05:01:39.115Z,19
2017-07-22T05:02:05.298Z,18.99
2017-07-22T05:02:31.442Z,19.04
2017-07-22T05:02:57.598Z,19.02
2017-07-22T05:03:23.709Z,18.9
2017-07-22T05:03:49.883Z,18.89
2017-07-22T05:04:16.039Z,18.86
2017-07-22T05:04:42.207Z,18.86
2017-07-22T05:05:08.320Z,18.84
2017-07-22T05:05:34.534Z,18.83
2017-07-22T05:06:00.711Z,18.8
2017-07-22T05:06:26.846Z,18.89
2017-07-22T05:06:52.971Z,18.83
2017-07-22T05:07:19.147Z,18.74
2017-07-22T05:07:45.330Z,18.73
2017-07-22T05:08:11.440Z,18.74
2017-07-22T05:08:37.582Z,18.78
2017-07-22T05:09:03.736Z,18.7
2017-07-22T05:09:29.890Z,18.74
2017-07-22T05:09:56.052Z,18.7
2017-07-22T05:10:22.201Z,18.74
2017-07-22T05:10:48.351Z,18.75
2017-07-22T05:11:14.495Z,18.77
2017-07-22T05:11:40.647Z,18.75
2017-07-22T05:12:06.834Z,18.73
2017-07-22T05:12:33.025Z,18.73
2017-07-22T05:12:59.146Z,18.73
2017-07-22T05:13:25.298Z,18.71
2017-07-22T05:13:51.437Z,18.71
2017-07-22T05:14:17.581Z,18.7
2017-07-22T05:14:43.708Z,18.74
2017-07-22T05:15:09.850Z,18.8
2017-07-22T05:15:35.988Z,18.73
2017-07-22T05:16:02.143Z,18.73
2017-07-22T05:16:28.291Z,18.7
2017-07-22T05:16:54.458Z,18.74
2017-07-22T05:17:20.584Z,18.77
2017-07-22T05:17:46.737Z,18.7
2017-07-22T05:18:12.877Z,18.74
2017-07-22T05:18:39.057Z,18.75
2017-07-22T05:19:05.195Z,18.75
2017-07-22T05:19:31.389Z,18.73
2017-07-22T05:19:57.536Z,18.7
2017-07-22T05:20:23.702Z,18.66
2017-07-22T05:20:49.856Z,18.6
2017-07-22T05:21:16.021Z,18.77
2017-07-22T05:21:42.137Z,18.77
2017-07-22T05:22:08.261Z,18.73
2017-07-22T05:22:34.449Z,18.62
2017-07-22T05:23:00.581Z,18.7
2017-07-22T05:23:26.696Z,18.65
2017-07-22T05:23:52.849Z,18.7
2017-07-22T05:24:19.020Z,18.66
2017-07-22T05:24:45.194Z,18.78
2017-07-22T05:25:11.329Z,18.8
2017-07-22T05:25:37.511Z,18.75
2017-07-22T05:26:03.638Z,18.75
2017-07-22T05:26:29.770Z,18.83
2017-07-22T05:26:55.921Z,18.88
2017-07-22T05:27:22.108Z,18.89
2017-07-22T05:27:48.276Z,18.88
2017-07-22T05:28:14.390Z,18.92
2017-07-22T05:28:40.641Z,18.9
2017-07-22T05:29:06.809Z,18.89
2017-07-22T05:29:32.916Z,18.84
2017-07-22T05:29:59.137Z,18.9
2017-07-22T05:30:25.258Z,19.07
2017-07-22T05:30:51.416Z,19.02
2017-07-22T05:31:17.557Z,19
2017-07-22T05:31:43.700Z,19.09
2017-07-22T05:32:09.829Z,19.07
2017-07-22T05:32:35.946Z,19
2017-07-22T05:33:02.051Z,19
2017-07-22T05:33:28.277Z,19.04
2017-07-22T05:33:54.446Z,19.11
2017-07-22T05:34:20.617Z,19.14
2017-07-22T05:34:46.743Z,19.16
2017-07-22T05:35:12.893Z,19.22
2017-07-22T05:35:39.069Z,19.14
2017-07-22T05:36:05.271Z,19.21
2017-07-22T05:36:31.441Z,19.26
2017-07-22T05:36:57.600Z,19.29
2017-07-22T05:37:23.719Z,19.3
2017-07-22T05:37:49.832Z,19.3
2017-07-22T05:38:16.017Z,19.31
2017-07-22T05:38:42.266Z,19.34
2017-07-22T05:39:08.431Z,19.34